Time;durP1;ratioP1;P1;durP2;ratioP2;P2;SDS_P1;SDS_P2;PMS_P1;PMS_P2;Temp;Humidity;BMP_temperature;BMP_pressure;BME280_temperature;BME280_humidity;BME280_pressure;Samples;Min_cycle;Max_cycle;Signal;HPM_P1;HPM_P2
2022/01/29 00:01:33;;;;;;;9.80;7.72;;;17.00;44.90;;;;;;5011712;28;20085;-64
2022/01/29 00:03:59;;;;;;;9.85;7.60;;;16.90;44.90;;;;;;5012862;28;20017;-65
2022/01/29 00:06:26;;;;;;;10.07;8.02;;;16.90;44.90;;;;;;5011714;28;20097;-65
2022/01/29 00:08:54;;;;;;;9.45;7.47;;;16.90;45.00;;;;;;5012591;28;20113;-64
2022/01/29 00:11:26;;;;;;;9.75;7.57;;;16.90;45.00;;;;;;5011503;28;20032;-64
2022/01/29 00:13:52;;;;;;;10.05;8.15;;;16.90;45.00;;;;;;5011546;28;20022;-64
2022/01/29 00:16:17;;;;;;;8.68;7.13;;;16.90;45.10;;;;;;5012547;28;20018;-64
2022/01/29 00:18:44;;;;;;;10.30;7.38;;;16.90;45.00;;;;;;5011286;28;20023;-64
2022/01/29 00:21:10;;;;;;;9.32;7.25;;;16.90;45.10;;;;;;5012554;28;20030;-64
2022/01/29 00:23:36;;;;;;;12.10;7.68;;;16.90;45.10;;;;;;5012673;28;20037;-64
2022/01/29 00:26:03;;;;;;;9.48;7.28;;;16.90;45.10;;;;;;5012443;28;20022;-64
2022/01/29 00:28:32;;;;;;;9.75;7.68;;;16.90;45.10;;;;;;5012474;28;20045;-64
2022/01/29 00:30:58;;;;;;;9.98;7.50;;;16.90;45.10;;;;;;5011145;28;20022;-65
2022/01/29 00:33:26;;;;;;;9.52;7.40;;;16.90;45.10;;;;;;5012324;28;20022;-65
2022/01/29 00:35:53;;;;;;;9.27;7.28;;;16.80;45.10;;;;;;5012518;28;20132;-65
2022/01/29 00:38:20;;;;;;;9.30;7.18;;;16.90;45.20;;;;;;5012582;28;20064;-65
2022/01/29 00:40:46;;;;;;;9.70;7.40;;;16.90;45.20;;;;;;5010919;28;20125;-66
2022/01/29 00:43:12;;;;;;;9.55;7.00;;;16.90;45.10;;;;;;5012308;28;20018;-67
2022/01/29 00:45:39;;;;;;;9.23;7.47;;;16.90;45.30;;;;;;5011076;28;20022;-65
2022/01/29 00:48:05;;;;;;;9.65;7.35;;;16.80;45.20;;;;;;5013650;28;20014;-65
2022/01/29 00:50:31;;;;;;;10.02;7.40;;;16.80;45.20;;;;;;5016065;28;20022;-65
2022/01/29 00:52:58;;;;;;;9.48;7.20;;;16.80;45.20;;;;;;5014568;28;20504;-64
2022/01/29 00:55:24;;;;;;;8.68;7.20;;;16.80;45.30;;;;;;5015930;28;20022;-65
2022/01/29 00:57:51;;;;;;;9.52;7.30;;;16.80;45.30;;;;;;5015704;28;20503;-65
2022/01/29 01:00:18;;;;;;;8.77;6.78;;;16.80;45.30;;;;;;5015539;28;20049;-66
2022/01/29 01:02:44;;;;;;;9.35;7.65;;;16.80;45.90;;;;;;5015847;28;20010;-64
2022/01/29 01:05:10;;;;;;;9.15;7.50;;;16.80;45.40;;;;;;5015630;28;20026;-65
2022/01/29 01:07:39;;;;;;;7.85;7.05;;;16.80;45.50;;;;;;5015401;28;20030;-66
2022/01/29 01:10:06;;;;;;;9.93;7.05;;;16.80;45.40;;;;;;5015654;28;20018;-66
2022/01/29 01:12:35;;;;;;;11.05;7.18;;;16.80;45.40;;;;;;5014430;28;20025;-65
2022/01/29 01:15:01;;;;;;;9.23;7.32;;;16.80;45.50;;;;;;5014114;28;20068;-65
2022/01/29 01:17:28;;;;;;;9.68;7.05;;;16.80;45.50;;;;;;5014103;28;20030;-64
2022/01/29 01:19:54;;;;;;;8.15;6.80;;;16.80;45.50;;;;;;5015424;28;20018;-64
2022/01/29 01:22:20;;;;;;;9.57;7.00;;;16.70;45.50;;;;;;5030874;28;20017;-64
2022/01/29 01:24:47;;;;;;;8.82;7.40;;;16.70;45.50;;;;;;5015192;28;20065;-64
2022/01/29 01:27:13;;;;;;;9.02;6.97;;;16.80;45.60;;;;;;5013975;28;20091;-64
2022/01/29 01:29:40;;;;;;;9.00;6.90;;;16.70;45.50;;;;;;5030340;28;20025;-64
2022/01/29 01:32:11;;;;;;;9.52;6.97;;;16.70;45.50;;;;;;5015054;28;20468;-64
2022/01/29 01:34:40;;;;;;;9.63;7.30;;;16.70;45.60;;;;;;5015154;28;20024;-64
2022/01/29 01:37:10;;;;;;;8.48;7.03;;;16.70;45.60;;;;;;5015204;28;20563;-64
2022/01/29 01:39:38;;;;;;;8.35;7.00;;;16.70;45.60;;;;;;5014828;28;20026;-64
2022/01/29 01:42:06;;;;;;;7.88;6.72;;;16.70;45.60;;;;;;5013607;28;20046;-64
2022/01/29 01:44:39;;;;;;;8.55;6.82;;;16.70;45.70;;;;;;5015275;28;20101;-66
2022/01/29 01:47:05;;;;;;;11.38;7.20;;;16.70;45.70;;;;;;5013737;28;20056;-64
2022/01/29 01:49:31;;;;;;;9.27;7.28;;;16.70;45.70;;;;;;5013615;28;20471;-64
2022/01/29 01:51:58;;;;;;;8.50;7.07;;;16.70;45.70;;;;;;5014964;28;20029;-64
2022/01/29 01:54:24;;;;;;;8.82;7.07;;;16.70;45.70;;;;;;5014624;28;20480;-64
2022/01/29 01:56:51;;;;;;;8.95;7.28;;;16.70;45.80;;;;;;5014785;28;20025;-64
2022/01/29 01:59:18;;;;;;;8.70;6.93;;;16.70;45.80;;;;;;5014708;28;20025;-64
2022/01/29 02:01:44;;;;;;;9.95;7.30;;;16.70;45.80;;;;;;5013177;28;20076;-64
2022/01/29 02:04:10;;;;;;;8.18;6.75;;;16.70;45.90;;;;;;5013287;28;20093;-64
2022/01/29 02:06:36;;;;;;;8.05;6.75;;;16.60;45.80;;;;;;5014471;28;20022;-64
2022/01/29 02:09:01;;;;;;;7.82;6.65;;;16.60;45.90;;;;;;5013326;28;20040;-64
2022/01/29 02:11:28;;;;;;;8.82;6.80;;;16.60;46.00;;;;;;5014452;28;20033;-64
2022/01/29 02:13:59;;;;;;;9.00;6.90;;;16.60;46.00;;;;;;5029541;28;20013;-64
2022/01/29 02:16:27;;;;;;;8.15;6.78;;;16.70;46.10;;;;;;5029468;28;20034;-64
2022/01/29 02:18:54;;;;;;;9.70;6.90;;;16.60;46.00;;;;;;5014155;28;20021;-64
2022/01/29 02:21:20;;;;;;;8.25;6.43;;;16.60;46.10;;;;;;5012878;28;20034;-64
2022/01/29 02:23:46;;;;;;;8.60;6.70;;;16.60;46.20;;;;;;5013124;28;20048;-64
2022/01/29 02:26:12;;;;;;;7.57;6.60;;;16.60;46.10;;;;;;5014268;28;20046;-64
2022/01/29 02:28:38;;;;;;;8.30;6.07;;;16.60;46.20;;;;;;5013989;28;20444;-64
2022/01/29 02:31:05;;;;;;;8.98;6.47;;;16.60;46.20;;;;;;5029163;28;20026;-64
2022/01/29 02:33:35;;;;;;;8.38;6.38;;;16.60;46.20;;;;;;5029071;28;20014;-65
2022/01/29 02:36:02;;;;;;;7.93;6.50;;;16.60;46.30;;;;;;5013790;28;20694;-65
2022/01/29 02:38:27;;;;;;;8.32;6.68;;;16.60;46.30;;;;;;5012539;28;20469;-65
2022/01/29 02:40:58;;;;;;;9.93;6.80;;;16.60;46.30;;;;;;5028788;28;20065;-65
2022/01/29 02:43:30;;;;;;;;;;;16.60;46.40;;;;;;5014214;28;20500;-63
2022/01/29 02:45:56;;;;;;;9.95;6.65;;;16.60;46.40;;;;;;5012588;28;19952;-65
2022/01/29 02:48:22;;;;;;;7.40;6.20;;;16.60;46.50;;;;;;5013545;28;20014;-65
2022/01/29 02:50:49;;;;;;;7.28;6.30;;;16.50;46.50;;;;;;5012700;28;20022;-65
2022/01/29 02:53:16;;;;;;;8.07;6.43;;;16.50;46.50;;;;;;5013556;28;20109;-64
2022/01/29 02:55:42;;;;;;;8.63;6.50;;;16.50;46.50;;;;;;5013430;28;20075;-64
2022/01/29 02:58:08;;;;;;;8.05;6.15;;;16.50;46.60;;;;;;5012288;28;20026;-64
2022/01/29 03:00:34;;;;;;;7.00;6.05;;;16.50;46.60;;;;;;5013364;28;20038;-64
2022/01/29 03:03:00;;;;;;;7.68;6.20;;;16.50;46.60;;;;;;5013635;28;20025;-63
2022/01/29 03:05:26;;;;;;;8.23;6.28;;;16.50;46.70;;;;;;5013341;28;20022;-64
2022/01/29 03:07:55;;;;;;;7.70;5.88;;;16.50;46.60;;;;;;5013231;28;20021;-64
2022/01/29 03:10:22;;;;;;;8.10;6.35;;;16.50;46.60;;;;;;5012844;28;20025;-64
2022/01/29 03:12:48;;;;;;;8.00;6.03;;;16.50;46.60;;;;;;5013232;28;20025;-64
2022/01/29 03:15:15;;;;;;;7.55;6.53;;;16.50;46.70;;;;;;5013141;28;20048;-64
2022/01/29 03:17:42;;;;;;;8.10;6.10;;;16.50;46.80;;;;;;5013567;28;20042;-64
2022/01/29 03:20:08;;;;;;;8.02;6.00;;;16.50;46.80;;;;;;5011954;28;20026;-64
2022/01/29 03:22:35;;;;;;;6.68;5.95;;;16.50;46.80;;;;;;5013058;28;20025;-64
2022/01/29 03:25:04;;;;;;;7.72;6.10;;;16.50;46.90;;;;;;5011906;28;20026;-65
2022/01/29 03:27:30;;;;;;;7.63;6.10;;;16.50;47.00;;;;;;5013059;28;20021;-64
2022/01/29 03:29:59;;;;;;;6.97;5.78;;;16.50;46.90;;;;;;5013280;28;20037;-64
2022/01/29 03:32:26;;;;;;;6.28;5.57;;;16.50;47.00;;;;;;5012061;28;20040;-64
2022/01/29 03:34:52;;;;;;;7.38;5.90;;;16.50;47.00;;;;;;5012930;28;20045;-65
2022/01/29 03:37:19;;;;;;;7.35;5.95;;;16.50;47.10;;;;;;5013121;28;20069;-64
2022/01/29 03:39:46;;;;;;;7.40;5.63;;;16.50;47.10;;;;;;5012857;28;20026;-64
2022/01/29 03:42:14;;;;;;;6.72;6.03;;;16.40;47.10;;;;;;5012792;28;20149;-64
2022/01/29 03:44:40;;;;;;;7.30;5.50;;;16.40;47.10;;;;;;5011697;28;20010;-64
2022/01/29 03:47:06;;;;;;;6.78;5.75;;;16.40;47.30;;;;;;5011556;28;20075;-64
2022/01/29 03:49:31;;;;;;;6.90;5.95;;;16.40;47.30;;;;;;5012845;28;20014;-64
2022/01/29 03:51:58;;;;;;;6.13;5.45;;;16.40;47.30;;;;;;5011831;28;20098;-64
2022/01/29 03:54:24;;;;;;;6.78;5.20;;;16.40;47.30;;;;;;5011504;28;20492;-65
2022/01/29 03:56:51;;;;;;;6.82;5.32;;;16.40;47.30;;;;;;5012771;28;20030;-65
2022/01/29 03:59:17;;;;;;;6.70;5.53;;;16.40;47.30;;;;;;5012672;28;20538;-65
2022/01/29 04:01:45;;;;;;;5.97;5.32;;;16.40;47.40;;;;;;5011365;28;20109;-65
2022/01/29 04:04:11;;;;;;;5.82;5.15;;;16.40;47.40;;;;;;5012922;28;20021;-65
2022/01/29 04:06:38;;;;;;;6.47;5.38;;;16.40;47.50;;;;;;5012556;28;20104;-65
2022/01/29 04:09:10;;;;;;;8.07;5.75;;;16.40;47.50;;;;;;5012566;28;20029;-65
2022/01/29 04:11:38;;;;;;;7.05;5.43;;;16.40;47.60;;;;;;5012592;28;20022;-65
2022/01/29 04:14:16;;;;;;;6.88;5.60;;;16.40;47.60;;;;;;5012558;28;20029;-65
2022/01/29 04:16:43;;;;;;;6.55;5.22;;;16.40;47.60;;;;;;5011484;28;20025;-65
2022/01/29 04:19:09;;;;;;;6.75;5.13;;;16.30;47.60;;;;;;5011320;28;20017;-65
2022/01/29 04:21:35;;;;;;;5.68;4.97;;;16.40;47.70;;;;;;5012316;28;20030;-65
2022/01/29 04:24:02;;;;;;;6.63;5.20;;;16.40;47.70;;;;;;5015474;28;20032;-65
2022/01/29 04:26:33;;;;;;;5.88;5.28;;;16.40;47.70;;;;;;5015100;28;20014;-64
2022/01/29 04:29:00;;;;;;;7.45;5.10;;;16.40;47.70;;;;;;5014974;28;20020;-64
2022/01/29 04:31:35;;;;;;;7.10;5.35;;;16.40;47.80;;;;;;5015002;28;20018;-64
2022/01/29 04:34:01;;;;;;;5.43;4.93;;;16.40;47.80;;;;;;5015063;28;20014;-64
2022/01/29 04:36:27;;;;;;;6.60;5.22;;;16.40;47.80;;;;;;5016312;28;20018;-64
2022/01/29 04:38:54;;;;;;;6.53;5.30;;;16.30;47.90;;;;;;5015066;28;20040;-64
2022/01/29 04:41:22;;;;;;;6.72;5.15;;;16.40;47.90;;;;;;5015872;28;20068;-64
2022/01/29 04:43:48;;;;;;;7.20;5.03;;;16.30;48.00;;;;;;5015955;28;20021;-64
2022/01/29 04:46:14;;;;;;;6.20;5.03;;;16.40;48.00;;;;;;5015784;28;20388;-64
2022/01/29 04:48:41;;;;;;;6.47;4.82;;;16.30;48.00;;;;;;5014939;28;20097;-64
2022/01/29 04:51:06;;;;;;;5.10;4.60;;;16.30;48.00;;;;;;5031004;28;20108;-64
2022/01/29 04:53:33;;;;;;;6.28;4.88;;;16.30;48.10;;;;;;5016015;28;20025;-64
2022/01/29 04:55:59;;;;;;;5.53;4.72;;;16.30;48.00;;;;;;5015684;28;20022;-64
2022/01/29 04:58:25;;;;;;;6.57;4.95;;;16.30;48.00;;;;;;5015648;28;20095;-64
2022/01/29 05:00:51;;;;;;;5.68;4.70;;;16.30;48.10;;;;;;5014303;28;20034;-64
2022/01/29 05:03:17;;;;;;;5.22;4.50;;;16.30;48.20;;;;;;5015563;28;20025;-64
2022/01/29 05:05:43;;;;;;;6.18;4.80;;;16.40;48.20;;;;;;5015558;28;20018;-64
2022/01/29 05:08:11;;;;;;;5.53;4.70;;;16.30;48.30;;;;;;5014259;28;20018;-64
2022/01/29 05:10:38;;;;;;;5.82;4.70;;;16.30;48.20;;;;;;5014374;28;20022;-64
2022/01/29 05:15:52;;;;;;;5.10;4.60;;;16.30;48.40;;;;;;5014279;28;20033;-64
2022/01/29 05:26:52;;;;;;;5.95;4.75;;;16.30;48.50;;;;;;5015613;28;20408;-65
2022/01/29 05:29:18;;;;;;;5.20;4.70;;;16.30;48.60;;;;;;5000398;28;20010;-64
2022/01/29 05:31:44;;;;;;;5.00;4.40;;;16.30;48.50;;;;;;5014258;28;20030;-64
2022/01/29 05:34:10;;;;;;;4.85;4.35;;;16.30;48.60;;;;;;5014869;28;20511;-64
2022/01/29 05:36:36;;;;;;;6.07;4.40;;;16.30;48.60;;;;;;5015383;28;20017;-64
2022/01/29 05:39:03;;;;;;;4.85;4.35;;;16.30;48.60;;;;;;5014983;28;20021;-64
2022/01/29 05:41:29;;;;;;;5.60;4.45;;;16.30;48.70;;;;;;5014718;28;20042;-65
2022/01/29 05:43:55;;;;;;;5.32;4.20;;;16.20;48.60;;;;;;5014853;28;20030;-65
2022/01/29 05:46:21;;;;;;;5.78;4.40;;;16.30;48.70;;;;;;5013886;28;20022;-65
2022/01/29 05:48:47;;;;;;;4.40;4.00;;;16.20;48.70;;;;;;4997126;28;20024;-64
2022/01/29 05:51:13;;;;;;;6.00;4.47;;;16.20;48.70;;;;;;5014740;28;20022;-64
2022/01/29 05:53:39;;;;;;;5.03;4.05;;;16.20;48.70;;;;;;5015192;28;20049;-66
2022/01/29 05:56:05;;;;;;;4.80;4.35;;;16.20;48.80;;;;;;5013515;28;20054;-64
2022/01/29 05:58:31;;;;;;;5.03;3.95;;;16.20;48.80;;;;;;5013607;28;20024;-64
2022/01/29 06:00:57;;;;;;;4.63;4.10;;;16.20;48.90;;;;;;5014723;28;20479;-64
2022/01/29 06:03:23;;;;;;;5.10;4.40;;;16.20;48.90;;;;;;5015139;28;20022;-64
2022/01/29 06:05:49;;;;;;;4.38;3.95;;;16.20;49.00;;;;;;5014816;28;20420;-64
2022/01/29 06:08:15;;;;;;;4.85;4.20;;;16.20;48.90;;;;;;5013782;28;20022;-64
2022/01/29 06:10:42;;;;;;;4.40;4.00;;;16.20;49.00;;;;;;5014826;28;20014;-65
2022/01/29 06:13:10;;;;;;;4.55;3.95;;;16.20;49.10;;;;;;5014371;28;20025;-64
2022/01/29 06:15:43;;;;;;;4.85;4.10;;;16.20;49.20;;;;;;5014718;28;20025;-64
2022/01/29 06:18:15;;;;;;;5.82;4.28;;;16.20;49.20;;;;;;5013545;28;20017;-64
2022/01/29 06:20:41;;;;;;;4.88;4.22;;;16.20;49.30;;;;;;5014887;28;20025;-64
2022/01/29 06:23:10;;;;;;;4.63;3.75;;;16.20;49.30;;;;;;5014812;28;20045;-65
2022/01/29 06:25:36;;;;;;;4.68;3.88;;;16.20;49.30;;;;;;5014669;28;20033;-66
2022/01/29 06:28:03;;;;;;;4.22;3.75;;;16.20;49.30;;;;;;5014498;28;20014;-64
2022/01/29 06:30:29;;;;;;;4.30;3.70;;;16.20;49.40;;;;;;5013581;28;20075;-66
2022/01/29 06:32:54;;;;;;;4.40;3.75;;;16.20;49.40;;;;;;5014802;28;20025;-65
2022/01/29 06:35:20;;;;;;;4.30;3.80;;;16.10;49.40;;;;;;5014001;28;20022;-65
2022/01/29 06:37:46;;;;;;;5.03;3.88;;;16.20;49.50;;;;;;5014028;28;20160;-65
2022/01/29 06:40:12;;;;;;;5.13;4.40;;;16.20;49.60;;;;;;5013782;28;20030;-64
2022/01/29 06:42:38;;;;;;;4.82;3.75;;;16.10;49.50;;;;;;5013890;28;20026;-64
2022/01/29 06:45:07;;;;;;;4.65;4.03;;;16.10;49.50;;;;;;5013001;28;20487;-64
2022/01/29 06:47:35;;;;;;;4.00;3.60;;;16.10;49.60;;;;;;5013773;28;20018;-64
2022/01/29 06:50:01;;;;;;;4.28;3.63;;;16.10;49.70;;;;;;5013985;28;20041;-65
2022/01/29 06:52:27;;;;;;;4.70;4.00;;;16.20;49.70;;;;;;5013975;28;20026;-64
2022/01/29 06:54:54;;;;;;;4.22;3.60;;;16.20;49.70;;;;;;5013640;28;20018;-64
2022/01/29 06:57:19;;;;;;;4.35;3.67;;;16.20;49.70;;;;;;5012451;28;20072;-64
2022/01/29 06:59:45;;;;;;;3.83;3.30;;;16.20;49.80;;;;;;4995878;28;20022;-64
2022/01/29 07:02:11;;;;;;;4.38;3.65;;;16.10;49.70;;;;;;5012161;28;20382;-64
2022/01/29 07:04:37;;;;;;;4.25;3.80;;;16.10;49.80;;;;;;5013324;28;20019;-64
2022/01/29 07:07:04;;;;;;;4.20;3.65;;;16.10;49.80;;;;;;5012408;28;20084;-65
2022/01/29 07:09:30;;;;;;;4.05;3.65;;;16.10;49.80;;;;;;5012100;28;20435;-66
2022/01/29 07:12:09;;;;;;;4.15;3.60;;;16.10;50.00;;;;;;5013505;28;20049;-65
2022/01/29 07:14:38;;;;;;;3.80;3.40;;;16.10;50.00;;;;;;5012437;28;20052;-64
2022/01/29 07:17:08;;;;;;;4.43;3.80;;;16.10;50.00;;;;;;5013184;28;20022;-64
2022/01/29 07:19:34;;;;;;;3.72;3.30;;;16.10;50.10;;;;;;5012936;28;20026;-64
2022/01/29 07:22:00;;;;;;;4.28;3.50;;;16.10;50.20;;;;;;5028185;28;20022;-65
2022/01/29 07:24:27;;;;;;;3.85;3.35;;;16.10;50.20;;;;;;4995935;28;20032;-66
2022/01/29 07:26:53;;;;;;;4.22;3.58;;;16.10;50.20;;;;;;5012985;28;20526;-66
2022/01/29 07:29:20;;;;;;;4.40;3.53;;;16.10;50.20;;;;;;5012054;28;20046;-66
2022/01/29 07:31:46;;;;;;;4.07;3.60;;;16.10;50.40;;;;;;5012890;28;20033;-65
2022/01/29 07:34:12;;;;;;;4.18;3.50;;;16.10;50.50;;;;;;5011725;28;20017;-66
2022/01/29 07:36:38;;;;;;;4.28;3.28;;;16.10;50.40;;;;;;5011657;28;20015;-65
2022/01/29 07:39:04;;;;;;;4.68;3.40;;;16.10;50.40;;;;;;5011967;28;20038;-65
2022/01/29 07:41:30;;;;;;;4.40;3.60;;;16.10;50.50;;;;;;5012722;28;20038;-66
2022/01/29 07:43:56;;;;;;;3.33;3.00;;;16.10;50.50;;;;;;5012891;28;20045;-64
2022/01/29 07:46:22;;;;;;;3.90;3.50;;;16.10;50.50;;;;;;5012791;28;20021;-66
2022/01/29 07:48:48;;;;;;;3.50;2.90;;;16.10;50.50;;;;;;5011515;28;20033;-66
2022/01/29 07:51:13;;;;;;;4.72;3.60;;;16.10;50.60;;;;;;5011547;28;20044;-66
2022/01/29 07:53:39;;;;;;;3.80;3.30;;;16.10;50.60;;;;;;5012087;28;20030;-65
2022/01/29 07:56:06;;;;;;;3.90;3.40;;;16.10;50.70;;;;;;5012705;28;20018;-66
2022/01/29 07:58:32;;;;;;;4.40;3.50;;;16.10;50.60;;;;;;5016701;28;20018;-65
2022/01/29 08:00:58;;;;;;;3.65;3.15;;;16.10;50.70;;;;;;5016664;28;20033;-65
2022/01/29 08:03:24;;;;;;;5.10;3.30;;;16.10;50.80;;;;;;5015593;28;20018;-65
2022/01/29 08:05:50;;;;;;;3.63;3.10;;;16.10;50.80;;;;;;5015745;28;20013;-65
2022/01/29 08:08:16;;;;;;;3.92;3.10;;;16.10;50.80;;;;;;5015367;28;20057;-65
2022/01/29 08:10:42;;;;;;;3.90;3.13;;;16.10;50.90;;;;;;5015742;28;20088;-65
2022/01/29 08:13:08;;;;;;;4.15;3.15;;;16.10;50.90;;;;;;5032692;28;20396;-65
2022/01/29 08:15:34;;;;;;;3.42;2.80;;;16.10;51.00;;;;;;5032674;28;20018;-65
2022/01/29 08:18:00;;;;;;;3.20;2.90;;;16.10;51.00;;;;;;4999785;28;20047;-65
2022/01/29 08:20:26;;;;;;;3.30;2.92;;;16.10;51.00;;;;;;5017291;28;20468;-64
2022/01/29 08:22:52;;;;;;;3.40;3.10;;;16.00;50.90;;;;;;5017323;28;20026;-66
2022/01/29 08:25:18;;;;;;;4.43;3.22;;;16.10;51.10;;;;;;5016980;28;20052;-69
2022/01/29 08:27:44;;;;;;;4.20;3.25;;;16.00;51.10;;;;;;5017158;28;20473;-65
2022/01/29 08:30:10;;;;;;;3.42;3.13;;;16.10;51.10;;;;;;5017817;28;20010;-66
2022/01/29 08:32:42;;;;;;;3.42;2.88;;;16.10;51.10;;;;;;5018570;28;20030;-65
2022/01/29 08:35:13;;;;;;;3.80;3.03;;;16.00;51.20;;;;;;5016723;28;20010;-65
2022/01/29 08:37:39;;;;;;;3.40;2.90;;;16.00;51.30;;;;;;5017586;28;20021;-65
2022/01/29 08:40:08;;;;;;;3.45;2.80;;;16.10;51.40;;;;;;5017637;28;20006;-67
2022/01/29 08:42:34;;;;;;;4.37;3.27;;;16.00;51.40;;;;;;5016511;28;20164;-65
2022/01/29 08:45:01;;;;;;;4.10;2.80;;;16.00;51.30;;;;;;5016346;28;20469;-65
2022/01/29 08:47:27;;;;;;;3.95;3.20;;;16.10;51.40;;;;;;5017362;28;20037;-65
2022/01/29 08:49:52;;;;;;;4.10;2.97;;;16.00;51.40;;;;;;5017436;28;20057;-65
2022/01/29 08:52:18;;;;;;;3.53;2.90;;;16.00;51.50;;;;;;5016098;28;20480;-65
2022/01/29 08:54:44;;;;;;;3.50;2.72;;;16.00;51.60;;;;;;5017298;28;20022;-64
2022/01/29 08:57:10;;;;;;;3.72;2.85;;;16.00;51.50;;;;;;5014935;28;20399;-66
2022/01/29 08:59:36;;;;;;;4.05;3.03;;;16.00;51.60;;;;;;5015999;28;20034;-66
2022/01/29 09:02:03;;;;;;;3.20;2.85;;;16.10;51.50;;;;;;5016362;28;20034;-64
2022/01/29 09:04:29;;;;;;;3.25;2.92;;;16.00;51.60;;;;;;5014334;28;20469;-66
2022/01/29 09:06:54;;;;;;;3.75;2.80;;;16.00;52.20;;;;;;5016303;28;20068;-70
2022/01/29 09:09:25;;;;;;;3.65;2.90;;;16.00;51.60;;;;;;5015437;28;20088;-66
2022/01/29 09:11:54;;;;;;;3.10;2.80;;;16.00;51.60;;;;;;5015980;28;20113;-66
2022/01/29 09:14:19;;;;;;;4.65;3.05;;;16.00;51.70;;;;;;5015695;28;20018;-64
2022/01/29 09:16:45;;;;;;;3.95;3.03;;;16.00;51.80;;;;;;5014548;28;20045;-65
2022/01/29 09:19:11;;;;;;;3.42;2.97;;;16.00;52.00;;;;;;5014529;28;20476;-66
2022/01/29 09:21:40;;;;;;;3.67;2.90;;;16.00;51.90;;;;;;5014401;28;20034;-65
2022/01/29 09:24:07;;;;;;;4.18;3.35;;;16.00;51.90;;;;;;5014372;28;20015;-66
2022/01/29 09:26:33;;;;;;;3.35;2.95;;;16.00;52.00;;;;;;5015403;28;20037;-66
2022/01/29 09:28:59;;;;;;;3.58;2.72;;;16.00;52.10;;;;;;5013961;28;20052;-65
2022/01/29 09:31:27;;;;;;;3.63;2.70;;;16.00;52.10;;;;;;5030271;28;20022;-65
2022/01/29 09:33:53;;;;;;;3.30;2.70;;;16.00;52.60;;;;;;5014920;28;20473;-65
2022/01/29 09:36:21;;;;;;;3.53;2.83;;;16.00;52.10;;;;;;5013814;28;20072;-65
2022/01/29 09:38:47;;;;;;;3.15;2.85;;;16.00;52.10;;;;;;4997498;28;20014;-65
2022/01/29 09:41:15;;;;;;;3.55;2.67;;;16.00;52.20;;;;;;5014784;28;20618;-64
2022/01/29 09:43:43;;;;;;;3.60;2.50;;;16.00;52.20;;;;;;5013660;28;20085;-64
2022/01/29 09:46:09;;;;;;;3.45;2.90;;;16.00;52.20;;;;;;5014765;28;20025;-64
2022/01/29 09:48:35;;;;;;;3.70;2.78;;;16.00;52.30;;;;;;5014703;28;20014;-64
2022/01/29 09:51:02;;;;;;;3.17;2.65;;;16.00;52.20;;;;;;5014842;28;20022;-64
2022/01/29 09:53:28;;;;;;;3.13;2.60;;;16.00;52.30;;;;;;5013469;28;20393;-64
2022/01/29 09:55:54;;;;;;;3.90;2.70;;;16.00;52.30;;;;;;5013465;28;20034;-67
2022/01/29 09:58:21;;;;;;;3.30;2.70;;;16.00;52.30;;;;;;5014444;28;20469;-64
2022/01/29 10:00:47;;;;;;;3.33;2.40;;;16.00;52.40;;;;;;5014295;28;20084;-64
2022/01/29 10:03:16;;;;;;;2.92;2.63;;;16.00;52.40;;;;;;5014446;28;20014;-64
2022/01/29 10:05:43;;;;;;;3.63;2.72;;;16.00;52.40;;;;;;5013160;28;20018;-64
2022/01/29 10:08:09;;;;;;;3.25;2.67;;;16.00;52.40;;;;;;5014346;28;20021;-64
2022/01/29 10:10:40;;;;;;;2.78;2.53;;;16.00;52.40;;;;;;5014259;28;20030;-66
2022/01/29 10:13:28;;;;;;;3.28;2.45;;;16.00;52.50;;;;;;5029509;28;20026;-67
2022/01/29 10:16:10;;;;;;;3.25;2.65;;;16.00;52.40;;;;;;5014308;28;20018;-64
2022/01/29 10:18:37;;;;;;;3.30;2.50;;;16.00;52.40;;;;;;5012985;28;20472;-65
2022/01/29 10:21:14;;;;;;;3.05;2.40;;;16.00;52.50;;;;;;5013216;28;20075;-64
2022/01/29 10:23:40;;;;;;;3.15;2.60;;;16.00;52.40;;;;;;5013211;28;20014;-65
2022/01/29 10:26:07;;;;;;;2.50;2.20;;;16.10;52.50;;;;;;5014079;28;20068;-65
2022/01/29 10:28:33;;;;;;;4.47;3.13;;;16.00;52.50;;;;;;5013996;28;20025;-64
2022/01/29 10:31:03;;;;;;;2.72;2.15;;;16.10;52.60;;;;;;5012819;28;20022;-64
2022/01/29 10:33:31;;;;;;;2.80;2.50;;;16.00;52.60;;;;;;5012791;28;20093;-65
2022/01/29 10:36:07;;;;;;;3.78;2.53;;;16.10;52.60;;;;;;5013910;28;20022;-64
2022/01/29 10:38:40;;;;;;;3.05;2.53;;;16.00;52.60;;;;;;5012987;28;20010;-65
2022/01/29 10:41:14;;;;;;;3.17;2.30;;;16.00;52.80;;;;;;5013567;28;20054;-65
2022/01/29 10:44:17;;;;;;;3.58;2.40;;;16.10;52.60;;;;;;5029282;28;20014;-64
2022/01/29 10:46:50;;;;;;;2.95;2.30;;;16.10;52.60;;;;;;5029466;28;20113;-65
2022/01/29 10:49:30;;;;;;;2.88;2.20;;;16.10;52.60;;;;;;5014016;28;20014;-65
2022/01/29 10:52:09;;;;;;;3.05;2.38;;;16.20;52.60;;;;;;5012475;28;20481;-66
2022/01/29 10:54:41;;;;;;;4.57;2.72;;;16.10;52.60;;;;;;5013616;28;20495;-65
2022/01/29 10:57:11;;;;;;;2.88;2.33;;;16.20;52.60;;;;;;5028717;28;20021;-66
2022/01/29 10:59:52;;;;;;;2.85;2.15;;;16.20;52.60;;;;;;5013419;28;20502;-64
2022/01/29 11:02:20;;;;;;;3.58;2.50;;;16.20;52.70;;;;;;5028591;28;20033;-64
2022/01/29 11:04:47;;;;;;;2.55;2.15;;;16.20;52.70;;;;;;5012206;28;20010;-64
2022/01/29 11:07:17;;;;;;;4.55;2.65;;;16.20;52.60;;;;;;5012663;28;20133;-65
2022/01/29 11:09:46;;;;;;;3.72;2.10;;;16.20;52.60;;;;;;5013344;28;20025;-66
2022/01/29 11:12:17;;;;;;;2.80;2.30;;;16.20;52.70;;;;;;5012242;28;20077;-66
2022/01/29 11:14:44;;;;;;;2.88;2.10;;;16.20;52.70;;;;;;5013168;28;20025;-66
2022/01/29 11:17:13;;;;;;;3.67;2.35;;;16.20;52.80;;;;;;5013102;28;20025;-66
2022/01/29 11:19:56;;;;;;;3.58;2.22;;;16.20;52.80;;;;;;5014053;28;20105;-65
2022/01/29 11:22:23;;;;;;;2.70;2.10;;;16.20;52.80;;;;;;5013084;28;20639;-66
2022/01/29 11:24:53;;;;;;;2.40;2.13;;;16.20;52.80;;;;;;5011924;28;20014;-66
2022/01/29 11:27:26;;;;;;;3.20;2.30;;;16.10;52.90;;;;;;5011768;28;20021;-66
2022/01/29 11:29:59;;;;;;;3.63;2.53;;;16.20;52.90;;;;;;5011818;28;20093;-66
2022/01/29 11:32:27;;;;;;;2.30;2.00;;;16.10;52.90;;;;;;5012589;28;20034;-66
2022/01/29 11:35:11;;;;;;;4.22;2.35;;;16.10;53.00;;;;;;4995457;28;20014;-66
2022/01/29 11:38:00;;;;;;;2.83;2.20;;;16.20;53.00;;;;;;5028100;28;20104;-66
2022/01/29 11:40:27;;;;;;;2.25;1.90;;;16.20;53.00;;;;;;5027878;28;20050;-66
2022/01/29 11:43:00;;;;;;;3.05;2.20;;;16.10;52.90;;;;;;5011817;28;20046;-65
2022/01/29 11:45:43;;;;;;;3.25;2.13;;;16.10;53.00;;;;;;5011864;28;20041;-66
2022/01/29 11:48:30;;;;;;;3.03;2.33;;;16.10;53.10;;;;;;5012436;28;20125;-65
2022/01/29 11:50:56;;;;;;;4.22;2.35;;;16.10;53.10;;;;;;5012638;28;20018;-65
2022/01/29 11:53:23;;;;;;;3.08;2.10;;;16.10;53.20;;;;;;5011517;28;20018;-65
2022/01/29 11:55:51;;;;;;;2.33;1.95;;;16.10;53.20;;;;;;5011480;28;20029;-65
2022/01/29 11:58:22;;;;;;;2.35;1.85;;;16.10;53.20;;;;;;5011589;28;20110;-65
2022/01/29 12:00:51;;;;;;;2.58;2.00;;;16.10;53.20;;;;;;5011420;28;20026;-65
2022/01/29 12:03:36;;;;;;;2.88;2.08;;;16.10;53.20;;;;;;5011523;28;20017;-65
2022/01/29 12:09:10;;;;;;;2.80;2.10;;;16.10;53.30;;;;;;5012568;28;20025;-65
2022/01/29 12:11:41;;;;;;;2.80;2.00;;;16.10;53.30;;;;;;5027701;28;20029;-65
2022/01/29 12:14:13;;;;;;;3.83;1.98;;;16.10;53.30;;;;;;5012507;28;20096;-66
2022/01/29 12:16:55;;;;;;;3.35;2.00;;;16.10;53.30;;;;;;5012486;28;20018;-64
2022/01/29 12:19:40;;;;;;;2.35;1.70;;;16.10;53.30;;;;;;5012706;28;20025;-65
2022/01/29 12:22:17;;;;;;;3.25;1.75;;;16.10;53.40;;;;;;5012286;28;20037;-65
2022/01/29 12:24:57;;;;;;;2.80;1.90;;;16.10;53.40;;;;;;5012404;28;20018;-65
2022/01/29 12:27:24;;;;;;;2.97;2.10;;;16.20;53.50;;;;;;5011365;28;20006;-65
2022/01/29 12:29:51;;;;;;;2.72;2.03;;;16.10;53.30;;;;;;5011464;28;20041;-66
2022/01/29 12:32:18;;;;;;;2.42;1.80;;;16.10;53.30;;;;;;5012315;28;20440;-65
2022/01/29 12:34:52;;;;;;;2.35;1.65;;;16.20;53.40;;;;;;5012378;28;20041;-65
2022/01/29 12:37:19;;;;;;;2.40;1.70;;;16.20;53.40;;;;;;5011283;28;20068;-65
2022/01/29 12:39:46;;;;;;;2.67;1.90;;;16.20;53.50;;;;;;5012277;28;20026;-66
2022/01/29 12:42:25;;;;;;;2.83;2.05;;;16.10;53.40;;;;;;5012139;28;20061;-66
2022/01/29 12:44:55;;;;;;;3.03;2.00;;;16.20;53.50;;;;;;5014958;28;20017;-66
2022/01/29 12:47:34;;;;;;;2.53;1.80;;;16.20;53.50;;;;;;5015883;28;20014;-65
2022/01/29 12:50:00;;;;;;;3.13;2.08;;;16.20;53.50;;;;;;5015816;28;20018;-65
2022/01/29 12:52:28;;;;;;;3.88;1.90;;;16.20;53.50;;;;;;5014859;28;20046;-66
2022/01/29 12:54:57;;;;;;;3.42;1.83;;;16.20;53.50;;;;;;5014542;28;20033;-66
2022/01/29 12:57:23;;;;;;;4.32;1.83;;;16.20;53.60;;;;;;5015785;28;20148;-66
2022/01/29 12:59:49;;;;;;;3.83;2.10;;;16.20;53.50;;;;;;5015545;28;20026;-66
2022/01/29 13:02:16;;;;;;;2.38;1.60;;;16.20;53.60;;;;;;5015834;28;20026;-66
2022/01/29 13:04:46;;;;;;;2.83;1.60;;;16.20;53.60;;;;;;5015612;28;20523;-65
2022/01/29 13:07:12;;;;;;;3.15;1.90;;;16.20;53.50;;;;;;5015446;28;20018;-65